Latest Weather Observations for Mount Keith

IDW60801

Issued at 10:32 pm WST Sunday 3 May 2015 (issued every 30 minutes, with the page automatically refreshed every 10 minutes)

About weather observations | Map of weather stations | Latest weather observations for WA | Other Formats
Station Details ID: 512019 Name: MOUNT KEITH Lat: -27.29 Lon: 120.55 Height: 542.33 m
Data from the previous 72 hours. | See also: Recent months for locations in Western Australia
Date/Time
WST
Temp
°C
App
Temp
°C
Dew
Point
Rel
Hum
%
Delta-T
°C
Wind Press
QNH
hPa
Press
MSL
hPa
Rain
since 9 am
mm
Dir
 
Spd
km/h
Gust
km/h
Spd
kts
Gust
kts
03/10:30pm 16.5 14.5 11.6 73 2.7 W 13 17 7 9 1016.4 1014.9 0.0
03/10:00pm 17.1 14.8 11.6 70 3.1 W 15 19 8 10 1016.4 1014.9 0.0
03/09:30pm 17.0 14.8 12.1 73 2.8 W 15 19 8 10 1016.4 1014.9 0.0
03/09:00pm 15.9 15.0 12.5 80 1.9 W 9 11 5 6 1016.4 1014.9 0.0
03/08:30pm 16.0 15.5 12.6 80 1.9 WNW 7 7 4 4 1016.3 1014.8 0.0
03/08:00pm 16.5 16.0 12.7 78 2.2 WNW 7 9 4 5 1016.2 1014.7 0.0
03/07:30pm 17.1 16.5 12.2 73 2.8 WNW 7 7 4 4 1015.9 1014.4 0.0
03/07:00pm 18.0 17.0 12.2 69 3.3 W 9 11 5 6 1015.7 1014.2 0.0
03/06:30pm 19.0 17.6 12.3 65 3.8 W 11 13 6 7 1015.4 1013.9 0.0
03/06:00pm 19.8 18.7 12.1 61 4.4 W 9 11 5 6 1014.8 1013.3 0.0
03/05:30pm 20.8 18.8 11.4 55 5.3 WNW 13 17 7 9 1014.4 1012.9 0.0
03/05:00pm 22.2 18.6 10.4 47 6.6 W 20 26 11 14 1014.2 1012.7 0.0
03/04:30pm 22.9 19.6 11.0 47 6.8 WNW 19 28 10 15 1014.2 1012.7 0.0
03/04:00pm 23.0 18.5 10.1 44 7.2 W 24 30 13 16 1014.1 1012.6 0.0
03/03:30pm 23.2 20.0 11.3 47 6.8 WNW 19 24 10 13 1014.0 1012.5 0.0
03/03:00pm 23.3 19.7 11.7 48 6.7 WNW 22 32 12 17 1014.0 1012.5 0.0
03/02:30pm 23.6 20.3 11.6 47 6.9 W 20 39 11 21 1013.9 1012.4 0.0
03/02:00pm 23.0 19.8 12.0 50 6.4 W 20 30 11 16 1013.9 1012.4 0.0
03/01:30pm 22.4 18.6 12.4 53 5.8 W 24 32 13 17 1014.0 1012.5 0.0
03/01:00pm 21.9 18.5 12.5 55 5.5 WNW 22 33 12 18 1014.2 1012.7 0.0
03/12:30pm 21.0 17.8 13.2 61 4.6 WNW 22 30 12 16 1014.4 1012.9 0.0
03/12:00pm 20.4 16.9 13.4 64 4.1 W 24 33 13 18 1014.8 1013.3 0.0
03/11:30am 19.3 16.7 13.2 68 3.5 WNW 19 28 10 15 1015.4 1013.9 0.0
03/11:00am 18.8 16.1 13.6 72 3.0 WNW 20 26 11 14 1015.6 1014.1 0.0
03/10:30am 17.7 15.0 13.4 76 2.5 W 20 28 11 15 1015.9 1014.4 0.0
03/10:00am 17.4 13.1 13.1 76 2.5 W 28 35 15 19 1016.1 1014.6 0.0
03/09:30am 17.4 14.4 12.7 74 2.7 W 20 28 11 15 1016.0 1014.5 0.0
03/09:00am 16.8 13.2 11.9 73 2.7 WNW 22 30 12 16 1015.9 1014.4 0.4
03/08:30am 16.4 13.4 10.5 68 3.2 WNW 17 20 9 11 1015.6 1014.1 0.4
03/08:00am 15.8 12.6 9.9 68 3.2 W 17 20 9 11 1015.2 1013.7 0.4
03/07:30am 14.5 13.4 10.5 77 2.2 NW 7 11 4 6 1014.6 1013.1 0.4
03/07:00am 12.6 11.2 9.6 82 1.6 N 7 9 4 5 1014.3 1012.8 0.4
03/06:30am 12.1 10.8 9.3 83 1.5 NW 6 7 3 4 1013.9 1012.4 0.4
03/06:00am 12.6 11.1 9.2 80 1.8 NW 7 11 4 6 1013.7 1012.2 0.4
03/05:30am 13.2 11.0 9.3 77 2.0 NW 11 17 6 9 1013.5 1011.9 0.4
03/05:00am 14.2 12.0 9.2 72 2.6 NW 11 17 6 9 1013.0 1011.5 0.4
03/04:30am 15.2 13.5 10.0 71 2.8 NNW 9 17 5 9 1012.7 1011.2 0.4
03/04:00am 14.0 12.6 9.4 74 2.4 N 7 9 4 5 1012.6 1011.1 0.4
03/03:30am 13.8 12.0 9.3 74 2.4 NNE 9 11 5 6 1012.5 1011.0 0.4
03/03:00am 12.7 11.2 9.2 79 1.8 N 7 7 4 4 1012.6 1011.1 0.4
03/02:30am 13.4 11.5 9.1 75 2.2 NW 9 13 5 7 1012.9 1011.4 0.4
03/02:00am 13.0 11.8 9.6 80 1.8 ENE 6 6 3 3 1012.7 1011.2 0.4
03/01:30am 13.5 12.0 9.0 74 2.3 E 7 9 4 5 1012.8 1011.3 0.4
03/01:00am 14.1 12.8 9.3 73 2.5 SE 6 9 3 5 1013.0 1011.5 0.4
03/12:30am 14.8 12.9 9.2 69 3.0 SE 9 11 5 6 1013.3 1011.7 0.4
03/12:00am 15.2 13.7 9.1 67 3.2 SSE 7 9 4 5 1013.6 1012.1 0.4
 
Date/Time
WST
Temp
°C
App
Temp
°C
Dew
Point
Rel
Hum
%
Delta-T
°C
Wind Press
QNH
hPa
Press
MSL
hPa
Rain
since 9 am
mm
Dir
 
Spd
km/h
Gust
km/h
Spd
kts
Gust
kts
02/11:30pm 15.1 13.1 8.8 66 3.3 ESE 9 13 5 7 1013.8 1012.3 0.4
02/11:00pm 15.1 12.7 8.8 66 3.3 ESE 11 13 6 7 1014.2 1012.7 0.4
02/10:30pm 15.6 13.2 8.8 64 3.6 SE 11 13 6 7 1014.6 1013.1 0.4
02/10:00pm 15.8 13.3 8.3 61 3.9 ESE 11 17 6 9 1014.8 1013.3 0.4
02/09:30pm 15.9 12.7 8.4 61 3.9 ESE 15 19 8 10 1014.9 1013.4 0.4
02/09:00pm 16.1 13.3 8.6 61 3.9 ESE 13 17 7 9 1015.2 1013.7 0.4
02/08:30pm 16.3 13.5 8.5 60 4.1 ESE 13 17 7 9 1015.2 1013.7 0.4
02/08:00pm 16.7 13.2 8.9 60 4.1 ESE 17 20 9 11 1015.2 1013.7 0.4
02/07:30pm 17.0 13.9 8.7 58 4.4 ESE 15 20 8 11 1015.3 1013.8 0.4
02/07:00pm 17.2 14.1 8.9 58 4.4 ESE 15 20 8 11 1014.9 1013.4 0.4
02/06:30pm 17.3 14.7 9.2 59 4.3 SE 13 17 7 9 1014.9 1013.4 0.4
02/06:00pm 17.7 13.6 7.7 52 5.2 E 19 24 10 13 1014.4 1012.9 0.4
02/05:30pm 17.8 13.9 8.6 55 4.9 ENE 19 30 10 16 1014.5 1013.0 0.4
02/05:00pm 17.9 14.4 8.7 55 4.9 ENE 17 24 9 13 1014.3 1012.8 0.4
02/04:30pm 18.1 14.0 8.7 54 5.0 E 20 26 11 14 1014.0 1012.5 0.4
02/04:00pm 18.0 14.2 9.1 56 4.8 ESE 19 24 10 13 1014.4 1012.9 0.4
02/03:30pm 18.1 13.3 8.9 55 4.9 E 24 33 13 18 1014.3 1012.8 0.4
02/03:00pm 18.1 14.0 8.7 54 5.0 E 20 30 11 16 1014.3 1012.8 0.4
02/02:30pm 18.0 13.5 8.6 54 5.0 E 22 32 12 17 1014.7 1013.2 0.4
02/02:00pm 18.0 13.4 8.0 52 5.2 E 22 37 12 20 1015.2 1013.7 0.4
02/01:30pm 18.3 13.8 8.6 53 5.2 ENE 22 32 12 17 1015.4 1013.9 0.4
02/01:00pm 18.4 14.5 9.5 56 4.8 E 20 30 11 16 1015.8 1014.3 0.4
02/12:30pm 17.8 14.0 9.2 57 4.6 E 19 26 10 14 1016.0 1014.5 0.4
02/12:00pm 16.7 13.6 10.3 66 3.5 ESE 17 24 9 13 1016.4 1014.9 0.4
02/11:30am 15.2 11.5 10.2 72 2.7 E 20 30 11 16 1016.8 1015.4 0.4
02/11:00am 16.3 12.3 10.4 68 3.2 ENE 22 35 12 19 1017.6 1016.1 0.0
02/10:30am 16.6 13.3 10.9 69 3.1 ENE 19 28 10 15 1018.4 1017.0 0.0
02/10:00am 16.4 12.6 11.1 71 2.9 NE 22 32 12 17 1019.0 1017.5 0.0
02/09:30am 15.7 12.8 10.9 73 2.6 ENE 17 24 9 13 1018.7 1017.3 0.0
02/09:00am 14.8 11.8 10.8 77 2.2 E 17 24 9 13 1018.4 1017.0 7.2
02/08:30am 14.2 11.4 11.4 83 1.5 ENE 17 24 9 13 1019.0 1017.5 7.2
02/08:00am 13.4 10.6 11.3 87 1.1 ENE 17 24 9 13 1019.2 1017.7 7.2
02/07:30am 13.4 11.3 11.3 87 1.1 ENE 13 19 7 10 1019.2 1017.7 7.2
02/07:00am 13.1 11.4 11.3 89 1.0 ENE 11 17 6 9 1019.1 1017.6 7.0
02/06:30am 13.1 11.0 11.0 87 1.1 E 13 17 7 9 1018.5 1017.1 7.0
02/06:00am 12.9 10.5 11.5 91 0.8 ESE 15 19 8 10 1017.9 1016.4 7.0
02/05:30am 12.8 11.2 11.7 93 0.6 E 11 15 6 8 1018.2 1016.7 7.0
02/05:00am 13.0 11.9 11.9 93 0.6 ESE 9 11 5 6 1018.7 1017.3 7.0
02/04:30am 13.1 11.9 11.7 91 0.8 ENE 9 11 5 6 1019.5 1018.0 7.0
02/04:00am 13.2 12.1 11.9 92 0.7 ENE 9 13 5 7 1019.3 1017.8 6.8
02/03:30am 13.3 12.2 12.0 92 0.7 NE 9 11 5 6 1019.1 1017.6 6.0
02/03:00am 13.4 12.3 12.0 91 0.8 E 9 13 5 7 1018.5 1017.1 5.6
02/02:30am 13.3 11.5 12.0 92 0.7 E 13 15 7 8 1017.8 1016.3 5.4
02/02:00am 13.3 12.3 12.2 93 0.6 ESE 9 13 5 7 1018.2 1016.7 5.2
02/01:30am 13.3 11.8 11.9 91 0.8 ESE 11 17 6 9 1017.9 1016.4 5.0
02/01:00am 13.3 11.5 12.0 92 0.7 E 13 17 7 9 1018.0 1016.5 4.4
02/12:30am 13.4 11.5 11.8 90 0.9 ESE 13 15 7 8 1018.2 1016.7 3.8
02/12:00am 14.1 12.2 11.8 86 1.3 E 13 15 7 8 1018.3 1016.8 3.0
 
Date/Time
WST
Temp
°C
App
Temp
°C
Dew
Point
Rel
Hum
%
Delta-T
°C
Wind Press
QNH
hPa
Press
MSL
hPa
Rain
since 9 am
mm
Dir
 
Spd
km/h
Gust
km/h
Spd
kts
Gust
kts
01/11:30pm 14.6 13.7 12.6 88 1.1 ESE 9 11 5 6 1018.2 1016.7 2.2
01/11:00pm 15.2 14.1 12.1 82 1.7 ENE 9 13 5 7 1018.7 1017.3 1.8
01/10:30pm 15.5 14.5 12.4 82 1.7 ESE 9 13 5 7 1018.8 1017.4 1.6
01/10:00pm 16.1 15.4 13.2 83 1.7 SE 9 13 5 7 1018.7 1017.3 1.4
01/09:30pm 15.8 15.8 13.5 86 1.3 ESE 6 7 3 4 1019.0 1017.5 1.2
01/09:00pm 15.7 14.8 12.6 82 1.7 SE 9 11 5 6 1018.8 1017.4 1.2
01/08:30pm 16.5 16.6 14.0 85 1.5 N 6 13 3 7 1019.4 1017.9 1.0
01/08:00pm 16.9 18.4 14.7 87 1.3 CALM 0 0 0 0 1019.8 1018.3 0.4
01/07:30pm 17.2 18.5 14.1 82 1.8 CALM 0 0 0 0 1019.4 1017.9 0.2
01/07:00pm 17.1 18.6 14.7 86 1.4 CALM 0 0 0 0 1019.2 1017.7 0.2
01/06:30pm 17.8 18.8 13.3 75 2.6 CALM 0 6 0 3 1018.8 1017.4 0.0
01/06:00pm 18.1 17.6 11.9 67 3.5 NNW 6 7 3 4 1018.5 1017.1 0.0
01/05:30pm 18.5 17.8 12.0 66 3.7 NW 7 11 4 6 1018.6 1017.2 0.0
01/05:00pm 19.2 18.0 10.2 56 4.9 NNW 7 9 4 5 1018.2 1016.7 0.0
01/04:30pm 19.6 17.4 9.2 51 5.6 NNW 11 15 6 8 1018.2 1016.7 0.0
01/04:00pm 20.1 16.5 8.4 47 6.3 NNW 17 24 9 13 1018.1 1016.6 0.0
01/03:30pm 22.2 19.6 6.0 35 8.4 NNW 9 15 5 8 1017.6 1016.1 0.0
01/03:00pm 22.9 20.4 4.9 31 9.2 NNW 7 11 4 6 1017.1 1015.6 0.0
01/02:30pm 23.1 20.0 3.6 28 9.7 NNW 9 13 5 7 1016.6 1015.1 0.0
01/02:00pm 23.2 20.9 4.7 30 9.4 N 6 7 3 4 1016.7 1015.3 0.0
01/01:30pm 22.8 20.3 4.8 31 9.2 NNE 7 9 4 5 1016.5 1015.0 0.0
01/01:00pm 22.3 20.0 5.7 34 8.6 NNE 7 11 4 6 1016.8 1015.4 0.0
01/12:30pm 21.5 19.6 7.7 41 7.4 N 7 9 4 5 1017.2 1015.7 0.0
01/12:00pm 22.7 18.8 3.3 28 9.6 N 13 19 7 10 1017.4 1015.9 0.0
01/11:30am 22.8 19.0 1.8 25 10.1 N 11 17 6 9 1018.0 1016.5 0.0
01/11:00am 22.3 19.6 2.4 27 9.6 E 6 9 3 5 1018.1 1016.6 0.0
01/10:30am 21.8 17.3 2.0 27 9.5 NNE 15 19 8 10 1018.4 1017.0 0.0
01/10:00am 20.9 16.6 3.2 31 8.6 NNE 15 19 8 10 1018.6 1017.2 0.0
01/09:30am 19.9 16.0 3.6 34 8.0 NE 13 17 7 9 1018.6 1017.2 0.0
01/09:00am 18.8 16.5 5.6 42 6.6 NNE 7 9 4 5 1018.8 1017.4 0.0
01/08:30am 18.3 15.2 5.5 43 6.4 NE 11 13 6 7 1018.8 1017.4 0.0
01/08:00am 17.2 15.2 6.1 48 5.6 E 6 7 3 4 1018.5 1017.1 0.0
01/07:30am 16.5 14.5 6.1 50 5.2 E 6 9 3 5 1018.6 1016.0 0.0
01/07:00am 16.3 14.2 5.6 49 5.3 E 6 11 3 6 1018.7 1016.1 0.0
01/06:30am 17.7 15.6 3.9 40 6.7 N 4 7 2 4 1018.7 1016.1 0.0
01/06:00am 18.0 15.5 3.9 39 6.8 N 6 7 3 4 1018.4 1015.8 0.0
01/05:30am 17.9 15.3 4.1 40 6.7 NNE 7 9 4 5 1018.2 1015.5 0.0
01/05:00am 18.5 15.8 3.6 37 7.2 NE 7 9 4 5 1018.0 1015.3 0.0
01/04:30am 19.1 16.8 2.9 34 7.8 NE 4 6 2 3 1017.9 1015.2 0.0
01/04:00am 19.3 16.0 2.6 33 7.9 NNE 9 11 5 6 1018.0 1015.3 0.0
01/03:30am 19.9 15.9 2.7 32 8.2 NNE 13 17 7 9 1017.7 1015.0 0.0
01/03:00am 18.9 15.3 3.1 35 7.6 NE 11 13 6 7 1017.7 1015.0 0.0
01/02:30am 18.6 15.4 3.3 36 7.4 NNE 9 15 5 8 1018.1 1015.4 0.0
01/02:00am 17.9 16.4 3.0 37 7.1 CALM 0 0 0 0 1018.1 1015.4 0.0
01/01:30am 18.4 16.5 2.7 35 7.4 ENE 2 6 1 3 1017.9 1015.2 0.0
01/01:00am 19.5 15.0 2.4 32 8.1 NNE 15 19 8 10 1018.2 1015.5 0.0
01/12:30am 19.3 15.3 2.6 33 8.0 N 13 19 7 10 1018.3 1015.7 0.0
01/12:00am 17.4 15.1 5.0 44 6.1 NNE 6 7 3 4 1018.5 1015.9 0.0
 
Date/Time
WST
Temp
°C
App
Temp
°C
Dew
Point
Rel
Hum
%
Delta-T
°C
Wind Press
QNH
hPa
Press
MSL
hPa
Rain
since 9 am
mm
Dir
 
Spd
km/h
Gust
km/h
Spd
kts
Gust
kts
30/11:30pm 17.2 14.9 5.5 46 5.8 NW 7 9 4 5 1018.6 1016.0 0.0
30/11:00pm 17.3 16.1 7.9 54 4.9 ENE 4 6 2 3 1018.5 1015.9 0.0

Other Formats:

Comma delimited format used in spreadsheet applications
http://www.bom.gov.au/fwo/IDW60801/IDW60801.99434.axf

JavaScript Object Notation format (JSON) in row-major order
http://www.bom.gov.au/fwo/IDW60801/IDW60801.99434.json